<?xml version="1.0" encoding="utf-8"?>
<gpx xmlns:xsi="http://www.w3.org/2001/XMLSchema-instance" xmlns:xsd="http://www.w3.org/2001/XMLSchema" version="1.1" creator="Shapelink.com" xmlns="http://www.topografix.com/GPX/1/1" xmlns:gpxtpx="http://www.garmin.com/xmlschemas/TrackPointExtension/v1">
  <metadata>
    <name>Cycling 7.47 km, 2020-07-26</name>
    <desc></desc>
    <author><name>Marian Moron</name></author> 
    <time>2020-07-26T17:20:29Z</time>
  </metadata>
  <trk>
    <name>Cycling 7.47 km, 2020-07-26</name>
    <trkseg>
      <trkpt lat="51.228623657242" lon="4.449094750372">
        <ele>0</ele>
        <time>2020-07-26T17:20:29Z</time>
      </trkpt>
      <trkpt lat="51.228784673541" lon="4.448758300906">
        <ele>0</ele>
        <time>2020-07-26T17:20:48Z</time>
      </trkpt>
      <trkpt lat="51.228807556128" lon="4.448789230117">
        <ele>0</ele>
        <time>2020-07-26T17:20:51Z</time>
      </trkpt>
      <trkpt lat="51.228741506756" lon="4.448870953642">
        <ele>0</ele>
        <time>2020-07-26T17:21:02Z</time>
      </trkpt>
      <trkpt lat="51.229022216587" lon="4.448496869445">
        <ele>0</ele>
        <time>2020-07-26T17:21:26Z</time>
      </trkpt>
      <trkpt lat="51.229011487755" lon="4.448370386574">
        <ele>0</ele>
        <time>2020-07-26T17:21:30Z</time>
      </trkpt>
      <trkpt lat="51.228644192897" lon="4.447712407424">
        <ele>0</ele>
        <time>2020-07-26T17:21:56Z</time>
      </trkpt>
      <trkpt lat="51.228319645729" lon="4.4471763011">
        <ele>0</ele>
        <time>2020-07-26T17:22:15Z</time>
      </trkpt>
      <trkpt lat="51.228282765369" lon="4.447180994964">
        <ele>0</ele>
        <time>2020-07-26T17:22:17Z</time>
      </trkpt>
      <trkpt lat="51.228236078186" lon="4.447154089065">
        <ele>0</ele>
        <time>2020-07-26T17:22:30Z</time>
      </trkpt>
      <trkpt lat="51.228169861176" lon="4.447161297499">
        <ele>0.2</ele>
        <time>2020-07-26T17:22:37Z</time>
      </trkpt>
      <trkpt lat="51.227787478898" lon="4.447789939999">
        <ele>3</ele>
        <time>2020-07-26T17:23:03Z</time>
      </trkpt>
      <trkpt lat="51.227427811569" lon="4.448445488398">
        <ele>9.8</ele>
        <time>2020-07-26T17:23:29Z</time>
      </trkpt>
      <trkpt lat="51.227049284965" lon="4.44913682751">
        <ele>8</ele>
        <time>2020-07-26T17:23:49Z</time>
      </trkpt>
      <trkpt lat="51.226580401479" lon="4.44939415184">
        <ele>4.2</ele>
        <time>2020-07-26T17:24:07Z</time>
      </trkpt>
      <trkpt lat="51.226208245119" lon="4.448902721043">
        <ele>0</ele>
        <time>2020-07-26T17:24:29Z</time>
      </trkpt>
      <trkpt lat="51.225863581391" lon="4.449604788987">
        <ele>0</ele>
        <time>2020-07-26T17:24:47Z</time>
      </trkpt>
      <trkpt lat="51.225307609964" lon="4.449738228835">
        <ele>0</ele>
        <time>2020-07-26T17:25:04Z</time>
      </trkpt>
      <trkpt lat="51.224834116433" lon="4.450148439021">
        <ele>0</ele>
        <time>2020-07-26T17:25:18Z</time>
      </trkpt>
      <trkpt lat="51.224416865451" lon="4.450775824236">
        <ele>0</ele>
        <time>2020-07-26T17:25:31Z</time>
      </trkpt>
      <trkpt lat="51.223993076587" lon="4.451326431247">
        <ele>0</ele>
        <time>2020-07-26T17:25:46Z</time>
      </trkpt>
      <trkpt lat="51.223440793196" lon="4.451231296682">
        <ele>0</ele>
        <time>2020-07-26T17:26:03Z</time>
      </trkpt>
      <trkpt lat="51.222904603053" lon="4.451062401397">
        <ele>0</ele>
        <time>2020-07-26T17:26:24Z</time>
      </trkpt>
      <trkpt lat="51.222699078865" lon="4.451025856313">
        <ele>0</ele>
        <time>2020-07-26T17:26:33Z</time>
      </trkpt>
      <trkpt lat="51.222643506868" lon="4.451030717815">
        <ele>0</ele>
        <time>2020-07-26T17:27:03Z</time>
      </trkpt>
      <trkpt lat="51.22209767754" lon="4.451218472375">
        <ele>0</ele>
        <time>2020-07-26T17:27:24Z</time>
      </trkpt>
      <trkpt lat="51.221593254798" lon="4.451568751976">
        <ele>0</ele>
        <time>2020-07-26T17:27:43Z</time>
      </trkpt>
      <trkpt lat="51.221027141272" lon="4.451698671426">
        <ele>0</ele>
        <time>2020-07-26T17:28:04Z</time>
      </trkpt>
      <trkpt lat="51.220463374678" lon="4.45174778936">
        <ele>0</ele>
        <time>2020-07-26T17:28:20Z</time>
      </trkpt>
      <trkpt lat="51.219906481242" lon="4.451859687725">
        <ele>0</ele>
        <time>2020-07-26T17:28:37Z</time>
      </trkpt>
      <trkpt lat="51.219364423769" lon="4.451950547521">
        <ele>0</ele>
        <time>2020-07-26T17:28:52Z</time>
      </trkpt>
      <trkpt lat="51.218988076459" lon="4.451910565858">
        <ele>0</ele>
        <time>2020-07-26T17:29:03Z</time>
      </trkpt>
      <trkpt lat="51.218927223865" lon="4.451816437121">
        <ele>0</ele>
        <time>2020-07-26T17:29:05Z</time>
      </trkpt>
      <trkpt lat="51.21885220586" lon="4.451751728853">
        <ele>0</ele>
        <time>2020-07-26T17:29:07Z</time>
      </trkpt>
      <trkpt lat="51.21833504263" lon="4.451837894785">
        <ele>0</ele>
        <time>2020-07-26T17:29:22Z</time>
      </trkpt>
      <trkpt lat="51.218206631922" lon="4.452696368983">
        <ele>0</ele>
        <time>2020-07-26T17:29:38Z</time>
      </trkpt>
      <trkpt lat="51.218173104322" lon="4.453597339414">
        <ele>0</ele>
        <time>2020-07-26T17:29:53Z</time>
      </trkpt>
      <trkpt lat="51.218145192595" lon="4.454488167746">
        <ele>0</ele>
        <time>2020-07-26T17:30:10Z</time>
      </trkpt>
      <trkpt lat="51.21807688011" lon="4.455385785417">
        <ele>1.4</ele>
        <time>2020-07-26T17:30:30Z</time>
      </trkpt>
      <trkpt lat="51.218047124365" lon="4.456268902401">
        <ele>0</ele>
        <time>2020-07-26T17:30:48Z</time>
      </trkpt>
      <trkpt lat="51.217994569852" lon="4.457148750444">
        <ele>4</ele>
        <time>2020-07-26T17:31:06Z</time>
      </trkpt>
      <trkpt lat="51.217945368099" lon="4.458030358686">
        <ele>7.8</ele>
        <time>2020-07-26T17:31:24Z</time>
      </trkpt>
      <trkpt lat="51.217906056988" lon="4.458900232268">
        <ele>7.4</ele>
        <time>2020-07-26T17:31:40Z</time>
      </trkpt>
      <trkpt lat="51.217953582361" lon="4.459790138591">
        <ele>9.4</ele>
        <time>2020-07-26T17:31:58Z</time>
      </trkpt>
      <trkpt lat="51.217882000935" lon="4.46064769078">
        <ele>11</ele>
        <time>2020-07-26T17:32:14Z</time>
      </trkpt>
      <trkpt lat="51.217822405626" lon="4.460970813025">
        <ele>8</ele>
        <time>2020-07-26T17:32:22Z</time>
      </trkpt>
      <trkpt lat="51.217278252678" lon="4.461227299165">
        <ele>0</ele>
        <time>2020-07-26T17:32:41Z</time>
      </trkpt>
      <trkpt lat="51.216781792741" lon="4.461626277605">
        <ele>0</ele>
        <time>2020-07-26T17:32:57Z</time>
      </trkpt>
      <trkpt lat="51.216276615628" lon="4.461974210274">
        <ele>0</ele>
        <time>2020-07-26T17:33:16Z</time>
      </trkpt>
      <trkpt lat="51.215742353322" lon="4.462216363365">
        <ele>0</ele>
        <time>2020-07-26T17:33:33Z</time>
      </trkpt>
      <trkpt lat="51.215588042543" lon="4.462278976158">
        <ele>0</ele>
        <time>2020-07-26T17:33:40Z</time>
      </trkpt>
      <trkpt lat="51.215202894238" lon="4.461752006105">
        <ele>0</ele>
        <time>2020-07-26T17:34:01Z</time>
      </trkpt>
      <trkpt lat="51.214890417006" lon="4.461042897365">
        <ele>0</ele>
        <time>2020-07-26T17:34:17Z</time>
      </trkpt>
      <trkpt lat="51.214569222598" lon="4.460352731719">
        <ele>0</ele>
        <time>2020-07-26T17:34:33Z</time>
      </trkpt>
      <trkpt lat="51.214335619045" lon="4.45957648396">
        <ele>0</ele>
        <time>2020-07-26T17:34:51Z</time>
      </trkpt>
      <trkpt lat="51.214049544798" lon="4.458828315566">
        <ele>0</ele>
        <time>2020-07-26T17:35:09Z</time>
      </trkpt>
      <trkpt lat="51.213892803268" lon="4.458594460556">
        <ele>0</ele>
        <time>2020-07-26T17:35:16Z</time>
      </trkpt>
      <trkpt lat="51.213606393745" lon="4.457821984652">
        <ele>0</ele>
        <time>2020-07-26T17:35:38Z</time>
      </trkpt>
      <trkpt lat="51.213334149633" lon="4.457082281977">
        <ele>0</ele>
        <time>2020-07-26T17:35:58Z</time>
      </trkpt>
      <trkpt lat="51.213433391329" lon="4.456219281553">
        <ele>0</ele>
        <time>2020-07-26T17:36:26Z</time>
      </trkpt>
      <trkpt lat="51.213459123762" lon="4.455323926995">
        <ele>0</ele>
        <time>2020-07-26T17:36:46Z</time>
      </trkpt>
      <trkpt lat="51.213484520919" lon="4.454456065069">
        <ele>0</ele>
        <time>2020-07-26T17:37:03Z</time>
      </trkpt>
      <trkpt lat="51.213541182563" lon="4.45360270383">
        <ele>0</ele>
        <time>2020-07-26T17:37:21Z</time>
      </trkpt>
      <trkpt lat="51.213540847287" lon="4.452721598502">
        <ele>0</ele>
        <time>2020-07-26T17:37:38Z</time>
      </trkpt>
      <trkpt lat="51.21345593864" lon="4.451842672468">
        <ele>0</ele>
        <time>2020-07-26T17:37:56Z</time>
      </trkpt>
      <trkpt lat="51.213386955603" lon="4.450971541601">
        <ele>0</ele>
        <time>2020-07-26T17:38:18Z</time>
      </trkpt>
      <trkpt lat="51.213275392514" lon="4.45008901135">
        <ele>0</ele>
        <time>2020-07-26T17:38:39Z</time>
      </trkpt>
      <trkpt lat="51.213058971856" lon="4.449293066126">
        <ele>0</ele>
        <time>2020-07-26T17:38:55Z</time>
      </trkpt>
      <trkpt lat="51.212782117699" lon="4.448540790601">
        <ele>0</ele>
        <time>2020-07-26T17:39:15Z</time>
      </trkpt>
      <trkpt lat="51.21268145108" lon="4.448521679869">
        <ele>0</ele>
        <time>2020-07-26T17:39:20Z</time>
      </trkpt>
      <trkpt lat="51.212355730446" lon="4.449259370888">
        <ele>0</ele>
        <time>2020-07-26T17:39:38Z</time>
      </trkpt>
      <trkpt lat="51.211962451698" lon="4.449920870436">
        <ele>0</ele>
        <time>2020-07-26T17:39:55Z</time>
      </trkpt>
      <trkpt lat="51.211626840422" lon="4.450634002488">
        <ele>0</ele>
        <time>2020-07-26T17:40:11Z</time>
      </trkpt>
      <trkpt lat="51.211449395599" lon="4.451012864368">
        <ele>1.4</ele>
        <time>2020-07-26T17:40:21Z</time>
      </trkpt>
      <trkpt lat="51.211477139688" lon="4.451307823429">
        <ele>0</ele>
        <time>2020-07-26T17:50:21Z</time>
      </trkpt>
      <trkpt lat="51.211185868663" lon="4.451585767233">
        <ele>0</ele>
        <time>2020-07-26T17:50:27Z</time>
      </trkpt>
      <trkpt lat="51.210892837439" lon="4.452296384715">
        <ele>0</ele>
        <time>2020-07-26T17:50:49Z</time>
      </trkpt>
      <trkpt lat="51.210869535757" lon="4.452474416271">
        <ele>0</ele>
        <time>2020-07-26T17:50:53Z</time>
      </trkpt>
      <trkpt lat="51.21110984483" lon="4.453275139178">
        <ele>0</ele>
        <time>2020-07-26T17:51:13Z</time>
      </trkpt>
      <trkpt lat="51.211397008724" lon="4.454026408875">
        <ele>0</ele>
        <time>2020-07-26T17:51:32Z</time>
      </trkpt>
      <trkpt lat="51.211637820711" lon="4.45485160693">
        <ele>0</ele>
        <time>2020-07-26T17:51:49Z</time>
      </trkpt>
      <trkpt lat="51.211868155323" lon="4.455660292642">
        <ele>3.4</ele>
        <time>2020-07-26T17:52:09Z</time>
      </trkpt>
      <trkpt lat="51.212348857288" lon="4.456133618535">
        <ele>7.8</ele>
        <time>2020-07-26T17:52:29Z</time>
      </trkpt>
      <trkpt lat="51.212826206493" lon="4.456573668285">
        <ele>9.4</ele>
        <time>2020-07-26T17:52:47Z</time>
      </trkpt>
      <trkpt lat="51.21332685738" lon="4.456952781622">
        <ele>15.2</ele>
        <time>2020-07-26T17:53:07Z</time>
      </trkpt>
      <trkpt lat="51.21361938569" lon="4.457731376313">
        <ele>14.8</ele>
        <time>2020-07-26T17:53:24Z</time>
      </trkpt>
      <trkpt lat="51.213900263159" lon="4.458517514714">
        <ele>9.4</ele>
        <time>2020-07-26T17:53:40Z</time>
      </trkpt>
      <trkpt lat="51.214124562803" lon="4.459351932859">
        <ele>6.2</ele>
        <time>2020-07-26T17:53:59Z</time>
      </trkpt>
      <trkpt lat="51.214397477467" lon="4.460158690734">
        <ele>4.4</ele>
        <time>2020-07-26T17:54:11Z</time>
      </trkpt>
      <trkpt lat="51.214737866426" lon="4.460849024018">
        <ele>2.2</ele>
        <time>2020-07-26T17:54:26Z</time>
      </trkpt>
      <trkpt lat="51.21504514688" lon="4.461589900159">
        <ele>0</ele>
        <time>2020-07-26T17:54:43Z</time>
      </trkpt>
      <trkpt lat="51.215363323804" lon="4.462286687506">
        <ele>0</ele>
        <time>2020-07-26T17:54:58Z</time>
      </trkpt>
      <trkpt lat="51.215466588812" lon="4.462398502052">
        <ele>0</ele>
        <time>2020-07-26T17:55:02Z</time>
      </trkpt>
      <trkpt lat="51.215860370474" lon="4.461823084617">
        <ele>0</ele>
        <time>2020-07-26T17:55:16Z</time>
      </trkpt>
      <trkpt lat="51.216200927071" lon="4.461152113522">
        <ele>0</ele>
        <time>2020-07-26T17:55:32Z</time>
      </trkpt>
      <trkpt lat="51.216521618565" lon="4.460433784692">
        <ele>0</ele>
        <time>2020-07-26T17:55:48Z</time>
      </trkpt>
      <trkpt lat="51.216840046946" lon="4.459700116985">
        <ele>0</ele>
        <time>2020-07-26T17:56:07Z</time>
      </trkpt>
      <trkpt lat="51.217397443296" lon="4.458623210473">
        <ele>0</ele>
        <time>2020-07-26T17:56:33Z</time>
      </trkpt>
      <trkpt lat="51.217790386768" lon="4.457980737838">
        <ele>0</ele>
        <time>2020-07-26T17:56:52Z</time>
      </trkpt>
      <trkpt lat="51.218111664995" lon="4.457262660465">
        <ele>0</ele>
        <time>2020-07-26T17:57:15Z</time>
      </trkpt>
      <trkpt lat="51.218526401407" lon="4.45676268013">
        <ele>0</ele>
        <time>2020-07-26T17:57:38Z</time>
      </trkpt>
      <trkpt lat="51.218985058975" lon="4.456269237677">
        <ele>0</ele>
        <time>2020-07-26T17:57:57Z</time>
      </trkpt>
      <trkpt lat="51.219478249971" lon="4.455887274494">
        <ele>0</ele>
        <time>2020-07-26T17:58:14Z</time>
      </trkpt>
      <trkpt lat="51.219906984156" lon="4.455434819532">
        <ele>0</ele>
        <time>2020-07-26T17:58:34Z</time>
      </trkpt>
      <trkpt lat="51.219978230306" lon="4.455601451704">
        <ele>0</ele>
        <time>2020-07-26T17:58:45Z</time>
      </trkpt>
      <trkpt lat="51.220035813959" lon="4.45557664128">
        <ele>7.4</ele>
        <time>2020-07-26T17:59:28Z</time>
      </trkpt>
      <trkpt lat="51.220055259967" lon="4.455542778404">
        <ele>7.4</ele>
        <time>2020-07-26T17:59:30Z</time>
      </trkpt>
      <trkpt lat="51.220489023292" lon="4.45497901181">
        <ele>5.2</ele>
        <time>2020-07-26T17:59:52Z</time>
      </trkpt>
      <trkpt lat="51.220921110237" lon="4.454477522733">
        <ele>1.8</ele>
        <time>2020-07-26T18:00:10Z</time>
      </trkpt>
      <trkpt lat="51.221495270387" lon="4.454460842752">
        <ele>0</ele>
        <time>2020-07-26T18:00:25Z</time>
      </trkpt>
      <trkpt lat="51.222048811063" lon="4.454460256019">
        <ele>0</ele>
        <time>2020-07-26T18:00:39Z</time>
      </trkpt>
      <trkpt lat="51.222620205186" lon="4.454478528561">
        <ele>0</ele>
        <time>2020-07-26T18:00:55Z</time>
      </trkpt>
      <trkpt lat="51.223174248776" lon="4.454504680089">
        <ele>0</ele>
        <time>2020-07-26T18:01:10Z</time>
      </trkpt>
      <trkpt lat="51.223740613759" lon="4.4545439912">
        <ele>3.6</ele>
        <time>2020-07-26T18:01:27Z</time>
      </trkpt>
      <trkpt lat="51.224299183575" lon="4.454549607073">
        <ele>5</ele>
        <time>2020-07-26T18:01:43Z</time>
      </trkpt>
      <trkpt lat="51.224766390681" lon="4.454575423325">
        <ele>6.6</ele>
        <time>2020-07-26T18:02:00Z</time>
      </trkpt>
      <trkpt lat="51.224820705393" lon="4.454644657819">
        <ele>4.6</ele>
        <time>2020-07-26T18:02:29Z</time>
      </trkpt>
      <trkpt lat="51.225360415934" lon="4.454601071939">
        <ele>4.8</ele>
        <time>2020-07-26T18:02:48Z</time>
      </trkpt>
      <trkpt lat="51.225919069569" lon="4.454571232375">
        <ele>5</ele>
        <time>2020-07-26T18:03:03Z</time>
      </trkpt>
      <trkpt lat="51.226465150354" lon="4.454565700321">
        <ele>7.6</ele>
        <time>2020-07-26T18:03:17Z</time>
      </trkpt>
      <trkpt lat="51.226989102923" lon="4.454610711124">
        <ele>3.6</ele>
        <time>2020-07-26T18:03:35Z</time>
      </trkpt>
      <trkpt lat="51.227559658856" lon="4.454599814654">
        <ele>4</ele>
        <time>2020-07-26T18:03:54Z</time>
      </trkpt>
      <trkpt lat="51.228123090174" lon="4.454653626452">
        <ele>1.8</ele>
        <time>2020-07-26T18:04:11Z</time>
      </trkpt>
      <trkpt lat="51.2284796562" lon="4.454731661941">
        <ele>0.4</ele>
        <time>2020-07-26T18:04:27Z</time>
      </trkpt>
      <trkpt lat="51.228499269846" lon="4.454730739932">
        <ele>2.2</ele>
        <time>2020-07-26T18:04:59Z</time>
      </trkpt>
      <trkpt lat="51.228509411945" lon="4.454732416312">
        <ele>2.4</ele>
        <time>2020-07-26T18:05:00Z</time>
      </trkpt>
      <trkpt lat="51.229047278468" lon="4.454821851185">
        <ele>6.2</ele>
        <time>2020-07-26T18:05:22Z</time>
      </trkpt>
      <trkpt lat="51.229582043688" lon="4.45497398267">
        <ele>9</ele>
        <time>2020-07-26T18:05:40Z</time>
      </trkpt>
      <trkpt lat="51.23010323023" lon="4.455049755046">
        <ele>8.4</ele>
        <time>2020-07-26T18:05:58Z</time>
      </trkpt>
      <trkpt lat="51.230284027813" lon="4.454244673551">
        <ele>0.6</ele>
        <time>2020-07-26T18:06:17Z</time>
      </trkpt>
      <trkpt lat="51.230142206065" lon="4.453391563769">
        <ele>0.8</ele>
        <time>2020-07-26T18:06:34Z</time>
      </trkpt>
      <trkpt lat="51.229973897513" lon="4.452553373769">
        <ele>0</ele>
        <time>2020-07-26T18:06:50Z</time>
      </trkpt>
      <trkpt lat="51.229829728833" lon="4.451685092748">
        <ele>0.4</ele>
        <time>2020-07-26T18:07:07Z</time>
      </trkpt>
      <trkpt lat="51.229864681356" lon="4.451368256928">
        <ele>0.6</ele>
        <time>2020-07-26T18:07:16Z</time>
      </trkpt>
      <trkpt lat="51.23038318569" lon="4.451151500994">
        <ele>3.4</ele>
        <time>2020-07-26T18:07:39Z</time>
      </trkpt>
      <trkpt lat="51.230396093816" lon="4.451124930371">
        <ele>2.8</ele>
        <time>2020-07-26T18:07:40Z</time>
      </trkpt>
      <trkpt lat="51.230337001421" lon="4.450246842527">
        <ele>0</ele>
        <time>2020-07-26T18:08:05Z</time>
      </trkpt>
      <trkpt lat="51.230154443639" lon="4.449403455749">
        <ele>5.8</ele>
        <time>2020-07-26T18:08:27Z</time>
      </trkpt>
      <trkpt lat="51.229956798437" lon="4.448570797803">
        <ele>11</ele>
        <time>2020-07-26T18:08:45Z</time>
      </trkpt>
      <trkpt lat="51.229926623597" lon="4.448509190838">
        <ele>9.2</ele>
        <time>2020-07-26T18:08:47Z</time>
      </trkpt>
      <trkpt lat="51.229759488511" lon="4.447663121852">
        <ele>4.2</ele>
        <time>2020-07-26T18:09:07Z</time>
      </trkpt>
      <trkpt lat="51.22953326103" lon="4.446926855756">
        <ele>0</ele>
        <time>2020-07-26T18:09:27Z</time>
      </trkpt>
      <trkpt lat="51.229108047243" lon="4.447480144975">
        <ele>2.2</ele>
        <time>2020-07-26T18:09:46Z</time>
      </trkpt>
      <trkpt lat="51.22888282559" lon="4.448151870441">
        <ele>0</ele>
        <time>2020-07-26T18:10:03Z</time>
      </trkpt>
      <trkpt lat="51.229034035066" lon="4.448529558855">
        <ele>0</ele>
        <time>2020-07-26T18:10:17Z</time>
      </trkpt>
      <trkpt lat="51.229013667049" lon="4.448523775344">
        <ele>0</ele>
        <time>2020-07-26T18:10:21Z</time>
      </trkpt>
      <trkpt lat="51.229032358686" lon="4.448447332416">
        <ele>0</ele>
        <time>2020-07-26T18:10:44Z</time>
      </trkpt>
      <trkpt lat="51.229024563519" lon="4.44845370266">
        <ele>0</ele>
        <time>2020-07-26T18:10:47Z</time>
      </trkpt>
      <trkpt lat="51.228655927557" lon="4.44913431294">
        <ele>0</ele>
        <time>2020-07-26T18:11:08Z</time>
      </trkpt>
      <trkpt lat="51.228614688609" lon="4.449187873281">
        <ele>0</ele>
        <time>2020-07-26T18:11:10Z</time>
      </trkpt>
    </trkseg>
  </trk>
</gpx>